Terminal Aerodrome Forecast
Issued by NWS

Current Version | Previous Version | Text Only | Print | Product List | Glossary On
Versions: 1 2 3 4 5 6 7 8 9 10 11 12 13 14 15 16 17 18 19 20 21 22 23
000
FTUS46 KLOX 030937 AAA
TAFLGB
TAF AMD
KLGB 030937Z 0310/0406 VRB03KT P6SM SCT250
     FM031200 VRB03KT P6SM BKN008
     FM031800 19008KT P6SM SCT250
     FM032200 29012KT P6SM SCT250
     FM040400 VRB03KT P6SM BKN250=

USA.gov is the U.S. government's official web portal to all federal, state and local government web resources and services.